createdAt,value
2018-11-29T00:00:40.306Z,8.00
2018-11-29T00:03:14.650Z,7.30
2018-11-29T00:05:49.467Z,8.30
2018-11-29T00:08:23.765Z,6.10
2018-11-29T00:10:58.197Z,7.30
2018-11-29T00:13:32.553Z,7.30
2018-11-29T00:16:06.970Z,7.90
2018-11-29T00:18:42.315Z,8.50
2018-11-29T00:21:16.591Z,8.20
2018-11-29T00:23:50.935Z,9.00
2018-11-29T00:26:25.449Z,8.70
2018-11-29T00:28:59.789Z,9.40
2018-11-29T00:31:34.169Z,11.50
2018-11-29T00:34:08.547Z,10.40
2018-11-29T00:36:42.830Z,11.00
2018-11-29T00:39:17.054Z,11.10
2018-11-29T00:41:51.359Z,11.40
2018-11-29T00:44:25.633Z,10.10
2018-11-29T00:47:00.088Z,10.70
2018-11-29T00:49:34.317Z,10.40
2018-11-29T00:52:08.654Z,10.00
2018-11-29T00:54:43.143Z,10.20
2018-11-29T00:57:17.537Z,10.70
2018-11-29T00:59:51.983Z,10.50
2018-11-29T01:02:26.322Z,11.10
2018-11-29T01:05:00.556Z,10.50
2018-11-29T01:07:34.861Z,11.20
2018-11-29T01:10:11.405Z,10.20
2018-11-29T01:12:46.229Z,9.50
2018-11-29T01:15:20.783Z,8.90
2018-11-29T01:17:55.158Z,8.40
2018-11-29T01:20:29.515Z,9.30
2018-11-29T01:23:03.757Z,7.30
2018-11-29T01:25:38.106Z,8.10
2018-11-29T01:28:12.297Z,7.80
2018-11-29T01:30:46.655Z,8.40
2018-11-29T01:33:20.935Z,8.20
2018-11-29T01:35:55.238Z,8.20
2018-11-29T01:38:29.586Z,7.30
2018-11-29T01:41:03.983Z,7.50
2018-11-29T01:43:38.200Z,7.30
2018-11-29T01:46:12.470Z,7.40
2018-11-29T01:48:46.751Z,7.30
2018-11-29T01:51:21.270Z,7.30
2018-11-29T01:53:55.596Z,7.30
2018-11-29T01:56:29.874Z,6.20
2018-11-29T01:59:04.095Z,7.30
2018-11-29T02:01:38.643Z,7.30
2018-11-29T02:04:12.956Z,8.20
2018-11-29T02:06:47.286Z,7.90
2018-11-29T02:09:21.615Z,7.30
2018-11-29T02:11:55.911Z,7.30
2018-11-29T02:14:30.551Z,8.20
2018-11-29T02:17:04.957Z,7.10
2018-11-29T02:19:39.186Z,7.30
2018-11-29T02:22:13.487Z,8.60
2018-11-29T02:24:48.116Z,8.10
2018-11-29T02:27:22.335Z,8.00
2018-11-29T02:29:56.845Z,7.30
2018-11-29T02:32:31.375Z,7.80
2018-11-29T02:35:06.407Z,8.70
2018-11-29T02:37:40.629Z,9.00
2018-11-29T02:40:16.899Z,9.70
2018-11-29T02:42:51.181Z,10.50
2018-11-29T02:45:26.127Z,9.60
2018-11-29T02:48:00.446Z,10.20
2018-11-29T02:50:35.116Z,11.00
2018-11-29T02:53:12.643Z,10.40
2018-11-29T02:55:47.512Z,10.50
2018-11-29T02:58:22.042Z,10.10
2018-11-29T03:01:03.077Z,10.40
2018-11-29T03:03:37.509Z,10.50
2018-11-29T03:06:12.345Z,10.90
2018-11-29T03:08:46.791Z,10.50
2018-11-29T03:11:21.304Z,9.70
2018-11-29T03:13:55.738Z,10.20
2018-11-29T03:16:30.051Z,10.50
2018-11-29T03:19:04.327Z,10.70
2018-11-29T03:21:38.794Z,10.10
2018-11-29T03:24:13.097Z,10.40
2018-11-29T03:26:48.759Z,10.60
2018-11-29T03:29:22.979Z,9.90
2018-11-29T03:31:57.439Z,10.70
2018-11-29T03:34:31.867Z,9.90
2018-11-29T03:37:06.894Z,11.00
2018-11-29T03:39:41.391Z,10.60
2018-11-29T03:42:15.736Z,9.80
2018-11-29T03:44:50.528Z,10.40
2018-11-29T03:47:24.755Z,11.20
2018-11-29T03:49:59.043Z,11.60
2018-11-29T03:52:34.241Z,13.40
2018-11-29T03:55:09.433Z,14.90
2018-11-29T03:57:43.753Z,17.50
2018-11-29T04:00:18.378Z,20.90
2018-11-29T04:02:53.684Z,21.50
2018-11-29T04:05:28.602Z,23.10
2018-11-29T04:08:02.878Z,23.40
2018-11-29T04:10:37.894Z,22.90
2018-11-29T04:13:12.237Z,24.20
2018-11-29T04:15:46.546Z,23.60
2018-11-29T04:18:20.829Z,22.40
2018-11-29T04:20:55.262Z,22.30
2018-11-29T04:23:29.640Z,21.90
2018-11-29T04:26:04.179Z,21.90
2018-11-29T04:28:38.462Z,21.50
2018-11-29T04:31:12.855Z,21.20
2018-11-29T04:33:47.153Z,21.10
2018-11-29T04:36:21.674Z,19.40
2018-11-29T04:38:56.612Z,20.10
2018-11-29T04:41:31.502Z,19.30
2018-11-29T04:44:05.968Z,19.30
2018-11-29T04:46:46.425Z,17.80
2018-11-29T04:49:20.776Z,18.60
2018-11-29T04:51:55.130Z,18.30
2018-11-29T04:54:29.332Z,18.10
2018-11-29T04:57:04.134Z,18.40
2018-11-29T04:59:39.240Z,18.60
2018-11-29T05:02:14.541Z,18.30
2018-11-29T05:04:48.840Z,18.10
2018-11-29T05:07:23.414Z,17.90
2018-11-29T05:09:57.726Z,18.50
2018-11-29T05:12:32.000Z,18.00
2018-11-29T05:15:08.366Z,17.80
2018-11-29T05:17:43.007Z,18.90
2018-11-29T05:20:17.377Z,17.60
2018-11-29T05:22:52.354Z,17.30
2018-11-29T05:25:27.260Z,16.40
2018-11-29T05:28:01.641Z,17.00
2018-11-29T05:30:36.333Z,17.80
2018-11-29T05:33:10.803Z,17.40
2018-11-29T05:35:45.150Z,16.30
2018-11-29T05:38:20.123Z,16.30
2018-11-29T05:40:55.034Z,17.30
2018-11-29T05:43:29.307Z,16.20
2018-11-29T05:46:05.601Z,16.20
2018-11-29T05:48:40.550Z,14.90
2018-11-29T05:51:15.179Z,15.60
2018-11-29T05:53:50.849Z,15.30
2018-11-29T05:56:25.315Z,16.40
2018-11-29T05:58:59.668Z,16.20
2018-11-29T06:01:38.228Z,15.30
2018-11-29T06:04:12.563Z,16.20
2018-11-29T06:06:47.896Z,16.00
2018-11-29T06:09:23.520Z,16.30
2018-11-29T06:11:59.298Z,15.00
2018-11-29T06:14:33.580Z,15.70
2018-11-29T06:17:07.955Z,15.10
2018-11-29T06:19:44.159Z,15.10
2018-11-29T06:22:19.419Z,15.50
2018-11-29T06:24:54.706Z,15.90
2018-11-29T06:27:31.771Z,15.10
2018-11-29T06:30:17.981Z,14.30
2018-11-29T06:32:53.630Z,14.80
2018-11-29T06:35:29.930Z,14.10
2018-11-29T06:38:07.603Z,15.10
2018-11-29T06:40:44.978Z,14.60
2018-11-29T06:43:20.941Z,14.70
2018-11-29T06:45:55.758Z,15.10
2018-11-29T06:48:32.956Z,15.70
2018-11-29T06:51:07.318Z,15.10
2018-11-29T06:53:47.067Z,14.30
2018-11-29T06:56:21.375Z,15.10
2018-11-29T06:58:55.934Z,15.10
2018-11-29T07:04:09.452Z,15.10
2018-11-29T07:06:44.709Z,14.60
2018-11-29T07:09:22.391Z,14.70
2018-11-29T07:12:01.018Z,14.60
2018-11-29T07:14:36.576Z,14.60
2018-11-29T07:17:10.903Z,14.20
2018-11-29T07:19:46.572Z,14.10
2018-11-29T07:22:21.153Z,15.20
2018-11-29T07:24:55.551Z,14.90
2018-11-29T07:27:29.891Z,14.90
2018-11-29T07:30:12.910Z,14.80
2018-11-29T07:32:48.564Z,15.10
2018-11-29T07:35:24.086Z,15.30
2018-11-29T07:37:58.753Z,15.30
2018-11-29T07:40:32.999Z,14.60
2018-11-29T07:43:07.939Z,14.90
2018-11-29T07:45:42.217Z,15.30
2018-11-29T07:48:16.927Z,15.30
2018-11-29T07:50:53.605Z,15.40
2018-11-29T07:53:29.010Z,15.40
2018-11-29T07:56:03.879Z,14.40
2018-11-29T07:58:38.547Z,15.40
2018-11-29T08:01:14.107Z,14.70
2018-11-29T08:03:49.038Z,15.20
2018-11-29T08:06:23.490Z,13.90
2018-11-29T08:08:58.142Z,14.40
2018-11-29T08:11:33.251Z,14.40
2018-11-29T08:14:07.681Z,14.20
2018-11-29T08:16:42.116Z,14.90
2018-11-29T08:19:16.736Z,14.20
2018-11-29T08:21:52.283Z,13.80
2018-11-29T08:24:26.662Z,12.90
2018-11-29T08:27:00.980Z,13.30
2018-11-29T08:29:35.310Z,13.10
2018-11-29T08:32:09.716Z,13.40
2018-11-29T08:34:44.177Z,13.00
2018-11-29T08:37:18.518Z,13.70
2018-11-29T08:39:53.095Z,15.60
2018-11-29T08:42:27.421Z,17.30
2018-11-29T08:45:02.825Z,18.40
2018-11-29T08:47:37.159Z,18.50
2018-11-29T08:50:12.438Z,19.90
2018-11-29T08:52:47.145Z,22.80
2018-11-29T08:55:21.727Z,22.80
2018-11-29T08:57:56.127Z,23.10
2018-11-29T09:00:30.491Z,22.80
2018-11-29T09:03:06.223Z,22.80
2018-11-29T09:05:40.710Z,22.80
2018-11-29T09:08:15.127Z,22.80
2018-11-29T09:10:49.371Z,23.10
2018-11-29T09:13:23.825Z,24.20
2018-11-29T09:15:58.843Z,23.80
2018-11-29T09:18:33.239Z,24.90
2018-11-29T09:21:07.786Z,25.80
2018-11-29T09:23:42.190Z,26.30
2018-11-29T09:26:17.556Z,27.60
2018-11-29T09:28:52.205Z,27.40
2018-11-29T09:31:27.500Z,28.80
2018-11-29T09:34:01.823Z,29.70
2018-11-29T09:36:37.332Z,29.80
2018-11-29T09:39:11.652Z,29.80
2018-11-29T09:41:45.912Z,29.90
2018-11-29T09:44:20.334Z,28.60
2018-11-29T09:46:54.718Z,29.00
2018-11-29T09:49:29.165Z,29.90
2018-11-29T09:52:03.582Z,29.50
2018-11-29T09:54:38.291Z,26.70
2018-11-29T09:57:12.516Z,27.90
2018-11-29T09:59:49.294Z,29.90
2018-11-29T10:02:23.559Z,29.90
2018-11-29T10:04:58.046Z,29.80
2018-11-29T10:07:32.672Z,29.90
2018-11-29T10:10:10.065Z,29.90
2018-11-29T10:12:44.439Z,29.90
2018-11-29T10:15:18.908Z,29.10
2018-11-29T10:17:53.766Z,27.60
2018-11-29T10:20:28.120Z,28.60
2018-11-29T10:23:02.565Z,28.20
2018-11-29T10:25:38.119Z,28.20
2018-11-29T10:28:14.166Z,27.80
2018-11-29T10:30:53.379Z,27.50
2018-11-29T10:36:26.212Z,27.70
2018-11-29T10:39:10.721Z,28.00
2018-11-29T10:41:50.671Z,27.90
2018-11-29T10:47:15.647Z,27.90
2018-11-29T10:49:49.988Z,27.30
2018-11-29T10:52:36.439Z,26.90
2018-11-29T10:58:19.295Z,27.00
2018-11-29T11:01:04.126Z,26.20
2018-11-29T11:03:39.088Z,26.40
2018-11-29T11:06:13.421Z,25.20
2018-11-29T11:08:49.857Z,25.60
2018-11-29T11:11:24.541Z,26.70
2018-11-29T11:13:59.675Z,25.90
2018-11-29T11:16:34.861Z,25.10
2018-11-29T11:19:09.758Z,25.50
2018-11-29T11:21:44.376Z,23.90
2018-11-29T11:24:19.499Z,24.30
2018-11-29T11:26:54.993Z,24.90
2018-11-29T11:29:29.460Z,24.90
2018-11-29T11:32:06.733Z,23.40
2018-11-29T11:34:42.484Z,22.80
2018-11-29T11:37:17.587Z,23.10
2018-11-29T11:39:52.563Z,26.00
2018-11-29T11:42:28.778Z,26.40
2018-11-29T11:45:03.547Z,28.00
2018-11-29T11:47:38.158Z,28.80
2018-11-29T11:50:15.563Z,28.30
2018-11-29T11:52:50.593Z,28.60
2018-11-29T11:55:30.043Z,28.70
2018-11-29T11:58:02.024Z,28.00
2018-11-29T12:00:37.039Z,27.90
2018-11-29T12:03:18.653Z,28.10
2018-11-29T12:05:53.789Z,27.20
2018-11-29T12:08:28.699Z,26.70
2018-11-29T12:13:42.451Z,27.00
2018-11-29T12:16:17.397Z,27.40
2018-11-29T12:18:53.163Z,26.10
2018-11-29T12:21:28.112Z,27.20
2018-11-29T12:24:02.983Z,26.90
2018-11-29T12:26:41.661Z,25.50
2018-11-29T12:29:17.219Z,24.50
2018-11-29T12:31:52.136Z,23.70
2018-11-29T12:34:27.772Z,24.50
2018-11-29T12:37:02.532Z,24.60
2018-11-29T12:39:44.048Z,23.70
2018-11-29T12:42:19.218Z,23.40
2018-11-29T12:44:54.902Z,23.60
2018-11-29T12:47:30.397Z,22.90
2018-11-29T12:50:07.228Z,22.50
2018-11-29T12:52:43.858Z,23.10
2018-11-29T12:55:19.898Z,23.10
2018-11-29T12:58:04.849Z,23.00
2018-11-29T13:00:31.439Z,22.30
2018-11-29T13:03:12.230Z,22.30
2018-11-29T13:05:51.217Z,21.80
2018-11-29T13:08:27.045Z,20.60
2018-11-29T13:11:10.759Z,20.40
2018-11-29T13:13:48.931Z,19.70
2018-11-29T13:16:24.539Z,19.10
2018-11-29T13:19:00.354Z,18.90
2018-11-29T13:21:36.836Z,16.80
2018-11-29T13:24:11.858Z,17.90
2018-11-29T13:26:47.010Z,17.20
2018-11-29T13:29:22.058Z,16.10
2018-11-29T13:31:56.557Z,16.90
2018-11-29T13:34:34.047Z,16.80
2018-11-29T13:37:20.812Z,15.50
2018-11-29T13:39:56.040Z,16.90
2018-11-29T13:42:31.130Z,15.30
2018-11-29T13:45:07.796Z,14.80
2018-11-29T13:47:42.452Z,14.30
2018-11-29T13:50:18.303Z,12.90
2018-11-29T13:52:53.479Z,13.90
2018-11-29T13:55:29.353Z,13.80
2018-11-29T13:58:05.010Z,14.00
2018-11-29T14:00:41.102Z,13.90
2018-11-29T14:03:16.516Z,12.50
2018-11-29T14:05:53.026Z,13.80
2018-11-29T14:08:28.482Z,13.30
2018-11-29T14:11:04.179Z,13.90
2018-11-29T14:13:42.069Z,13.90
2018-11-29T14:16:17.590Z,14.60
2018-11-29T14:18:57.938Z,13.40
2018-11-29T14:21:37.152Z,13.40
2018-11-29T14:24:17.082Z,14.40
2018-11-29T14:26:57.146Z,13.80
2018-11-29T14:29:36.518Z,14.00
2018-11-29T14:32:28.226Z,13.70
2018-11-29T14:35:04.069Z,13.10
2018-11-29T14:37:44.662Z,14.20
2018-11-29T14:40:23.160Z,13.20
2018-11-29T14:43:02.887Z,13.70
2018-11-29T14:48:26.589Z,13.60
2018-11-29T14:51:05.468Z,13.00
2018-11-29T14:53:43.605Z,13.90
2018-11-29T14:56:32.360Z,14.90
2018-11-29T14:59:22.759Z,14.10
2018-11-29T15:02:00.201Z,13.50
2018-11-29T15:04:40.539Z,14.20
2018-11-29T15:10:18.136Z,13.10
2018-11-29T15:12:59.263Z,13.00
2018-11-29T15:15:38.967Z,14.20
2018-11-29T15:30:43.485Z,13.10
2018-11-29T15:39:08.994Z,11.70
2018-11-29T15:41:46.405Z,12.00
2018-11-29T15:44:22.915Z,9.40
2018-11-29T15:47:13.902Z,10.00
2018-11-29T15:49:50.164Z,9.80
2018-11-29T15:52:30.740Z,12.00
2018-11-29T15:55:10.277Z,11.60
2018-11-29T15:57:48.150Z,10.80
2018-11-29T16:03:15.908Z,9.40
2018-11-29T16:05:50.940Z,9.00
2018-11-29T16:08:35.556Z,8.60
2018-11-29T16:11:26.230Z,9.10
2018-11-29T16:17:29.155Z,7.50
2018-11-29T16:20:10.317Z,6.40
2018-11-29T16:23:00.321Z,7.60
2018-11-29T16:25:40.201Z,7.70
2018-11-29T16:28:16.495Z,7.30
2018-11-29T16:31:00.499Z,8.40
2018-11-29T16:33:38.345Z,7.20
2018-11-29T16:36:15.472Z,7.30
2018-11-29T16:38:53.401Z,6.10
2018-11-29T16:41:35.863Z,6.30
2018-11-29T16:44:20.571Z,5.40
2018-11-29T16:46:57.380Z,5.70
2018-11-29T16:49:37.334Z,5.70
2018-11-29T16:52:16.815Z,4.90
2018-11-29T16:54:54.134Z,6.90
2018-11-29T16:57:30.402Z,10.20
2018-11-29T17:00:11.450Z,11.60
2018-11-29T17:02:51.286Z,13.60
2018-11-29T17:05:26.856Z,15.80
2018-11-29T17:08:02.036Z,16.90
2018-11-29T17:10:42.964Z,17.60
2018-11-29T17:13:20.256Z,17.80
2018-11-29T17:15:56.195Z,18.90
2018-11-29T17:18:32.714Z,19.60
2018-11-29T17:21:08.432Z,20.20
2018-11-29T17:23:43.886Z,19.60
2018-11-29T17:26:23.777Z,19.60
2018-11-29T17:29:10.236Z,20.10
2018-11-29T17:32:00.558Z,20.50
2018-11-29T17:34:40.262Z,18.20
2018-11-29T17:37:16.406Z,17.40
2018-11-29T17:39:53.936Z,16.20
2018-11-29T17:42:30.511Z,15.70
2018-11-29T17:45:06.771Z,17.00
2018-11-29T17:47:45.108Z,15.50
2018-11-29T17:50:22.514Z,17.10
2018-11-29T17:52:57.039Z,17.00
2018-11-29T17:55:34.100Z,18.30
2018-11-29T17:58:10.119Z,16.90
2018-11-29T18:00:48.130Z,16.90
2018-11-29T18:03:25.343Z,9.40
2018-11-29T18:06:01.477Z,8.20
2018-11-29T18:08:36.749Z,7.30
2018-11-29T18:11:11.329Z,4.90
2018-11-29T18:13:46.614Z,3.90
2018-11-29T18:16:21.023Z,4.00
2018-11-29T18:18:57.267Z,1.50
2018-11-29T18:21:31.781Z,1.00
2018-11-29T18:24:10.928Z,1.00
2018-11-29T18:26:46.138Z,1.00
2018-11-29T18:29:21.516Z,1.00
2018-11-29T18:31:57.788Z,1.00
2018-11-29T18:34:32.093Z,1.00
2018-11-29T18:37:06.577Z,1.00
2018-11-29T18:39:41.083Z,1.00
2018-11-29T18:42:17.207Z,1.00
2018-11-29T18:44:53.127Z,1.00
2018-11-29T18:47:27.982Z,1.00
2018-11-29T18:50:04.142Z,1.00
2018-11-29T18:52:38.771Z,1.00
2018-11-29T18:55:16.554Z,1.00
2018-11-29T18:57:57.029Z,1.00
2018-11-29T19:00:35.745Z,1.00
2018-11-29T19:03:10.180Z,1.00
2018-11-29T19:05:45.413Z,1.00
2018-11-29T19:08:20.551Z,1.00
2018-11-29T19:10:59.583Z,1.00
2018-11-29T19:13:38.782Z,1.00
2018-11-29T19:16:15.557Z,1.00
2018-11-29T19:18:51.786Z,1.00
2018-11-29T19:21:26.671Z,1.00
2018-11-29T19:24:01.532Z,1.00
2018-11-29T19:26:47.396Z,1.00
2018-11-29T19:29:43.015Z,1.00
2018-11-29T19:37:00.296Z,1.00
2018-11-29T19:43:30.666Z,1.00
2018-11-29T19:49:21.643Z,1.00
2018-11-29T19:56:20.738Z,1.00
2018-11-29T19:59:06.298Z,1.00
2018-11-29T20:08:01.063Z,1.00
2018-11-29T20:21:40.400Z,1.00
2018-11-29T20:24:16.188Z,1.00
2018-11-29T20:26:52.217Z,1.00
2018-11-29T20:30:01.886Z,1.00
2018-11-29T20:35:56.694Z,1.00
2018-11-29T20:38:40.038Z,1.00
2018-11-29T20:41:33.161Z,1.00
2018-11-29T20:46:50.415Z,1.00
2018-11-29T20:49:25.950Z,1.00
2018-11-29T20:52:00.821Z,1.00
2018-11-29T20:54:40.959Z,1.00
2018-11-29T20:57:15.935Z,1.00
2018-11-29T20:59:50.778Z,1.00
2018-11-29T21:02:27.248Z,1.00
2018-11-29T21:05:02.273Z,1.00
2018-11-29T21:07:37.326Z,1.00
2018-11-29T21:10:14.330Z,1.00
2018-11-29T21:12:49.093Z,1.00
2018-11-29T21:15:24.020Z,1.00
2018-11-29T21:17:58.548Z,1.00
2018-11-29T21:20:33.168Z,1.00
2018-11-29T21:23:09.131Z,1.00
2018-11-29T21:25:44.255Z,1.00
2018-11-29T21:28:18.692Z,1.00
2018-11-29T21:30:53.606Z,1.00
2018-11-29T21:33:28.174Z,1.00
2018-11-29T21:36:02.988Z,1.00
2018-11-29T21:38:37.592Z,1.00
2018-11-29T21:41:12.022Z,1.00
2018-11-29T21:43:46.629Z,1.00
2018-11-29T21:46:21.176Z,1.00
2018-11-29T21:48:55.471Z,1.00
2018-11-29T21:51:29.958Z,1.00
2018-11-29T21:54:04.782Z,1.00
2018-11-29T22:03:16.939Z,1.00
2018-11-29T22:05:52.740Z,1.00
2018-11-29T22:08:27.835Z,1.00
2018-11-29T22:11:02.300Z,1.00
2018-11-29T22:13:38.091Z,1.00
2018-11-29T22:16:12.981Z,1.00
2018-11-29T22:18:47.731Z,1.00
2018-11-29T22:21:22.062Z,1.00
2018-11-29T22:23:57.019Z,1.00
2018-11-29T22:26:31.651Z,1.00
2018-11-29T22:29:06.745Z,1.00
2018-11-29T22:31:41.204Z,1.00
2018-11-29T22:34:15.659Z,1.00
2018-11-29T22:36:50.046Z,1.00
2018-11-29T22:39:25.389Z,1.00
2018-11-29T22:44:46.046Z,1.00
2018-11-29T22:47:22.303Z,1.00
2018-11-29T22:49:56.739Z,1.00
2018-11-29T22:52:32.669Z,1.00
2018-11-29T22:55:07.125Z,1.00
2018-11-29T22:57:41.490Z,1.00
2018-11-29T23:00:18.298Z,1.00
2018-11-29T23:02:52.815Z,1.00
2018-11-29T23:05:28.262Z,1.00
2018-11-29T23:08:03.199Z,1.00
2018-11-29T23:10:38.645Z,1.00
2018-11-29T23:13:14.972Z,1.00
2018-11-29T23:15:49.225Z,1.00
2018-11-29T23:18:23.732Z,1.00
2018-11-29T23:20:59.068Z,1.00
2018-11-29T23:23:34.030Z,1.00
2018-11-29T23:26:09.204Z,1.00
2018-11-29T23:28:44.217Z,1.00
2018-11-29T23:31:19.397Z,1.00
2018-11-29T23:33:53.844Z,1.00
2018-11-29T23:36:28.449Z,1.00
2018-11-29T23:39:02.842Z,1.00
2018-11-29T23:41:48.229Z,1.00
2018-11-29T23:44:33.979Z,1.00
2018-11-29T23:47:19.687Z,1.00
2018-11-29T23:49:59.849Z,1.00
2018-11-29T23:52:35.183Z,1.00
2018-11-29T23:55:10.799Z,1.00
2018-11-29T23:57:45.356Z,1.00
